createdAt,value
2023-05-08T00:00:05.221Z,93.67
2023-05-08T00:02:06.855Z,94.72
2023-05-08T00:04:08.554Z,93.63
2023-05-08T00:06:10.381Z,94.27
2023-05-08T00:08:12.078Z,93.83
2023-05-08T00:10:13.780Z,94.88
2023-05-08T00:12:15.537Z,93.69
2023-05-08T00:14:17.061Z,94.61
2023-05-08T00:16:18.719Z,94.36
2023-05-08T00:18:20.340Z,93.88
2023-05-08T00:20:21.911Z,94.20
2023-05-08T00:22:23.453Z,93.87
2023-05-08T00:24:25.002Z,94.50
2023-05-08T00:26:26.540Z,94.52
2023-05-08T00:28:28.107Z,93.86
2023-05-08T00:30:29.607Z,94.29
2023-05-08T00:32:31.273Z,94.63
2023-05-08T00:34:32.908Z,94.79
2023-05-08T00:36:34.431Z,94.55
2023-05-08T00:38:36.843Z,94.53
2023-05-08T00:40:38.849Z,94.40
2023-05-08T00:42:40.403Z,95.00
2023-05-08T00:44:41.970Z,95.33
2023-05-08T00:46:44.873Z,95.32
2023-05-08T00:48:47.308Z,95.53
2023-05-08T00:50:50.079Z,95.22
2023-05-08T00:52:52.149Z,94.84
2023-05-08T00:54:54.724Z,95.31
2023-05-08T00:56:56.690Z,94.32
2023-05-08T00:58:58.829Z,94.24
2023-05-08T01:01:01.039Z,94.18
2023-05-08T01:03:03.262Z,95.03
2023-05-08T01:05:05.810Z,94.77
2023-05-08T01:09:32.913Z,94.94
2023-05-08T01:11:44.662Z,94.63
2023-05-08T01:14:07.889Z,95.15
2023-05-08T01:16:20.031Z,94.78
2023-05-08T01:18:32.518Z,94.86
2023-05-08T01:20:57.180Z,95.73
2023-05-08T01:23:32.949Z,94.39
2023-05-08T01:26:00.878Z,94.30
2023-05-08T01:28:14.589Z,94.47
2023-05-08T01:30:31.400Z,94.69
2023-05-08T01:32:43.719Z,94.19
2023-05-08T01:35:28.162Z,94.32
2023-05-08T01:37:36.079Z,94.26
2023-05-08T01:40:12.866Z,94.14
2023-05-08T01:42:17.571Z,94.36
2023-05-08T01:44:24.680Z,95.04
2023-05-08T01:46:28.368Z,94.76
2023-05-08T01:48:33.853Z,94.26
2023-05-08T01:50:46.904Z,95.02
2023-05-08T01:52:58.973Z,94.51
2023-05-08T01:55:14.779Z,94.46
2023-05-08T01:57:18.765Z,95.16
2023-05-08T01:59:23.753Z,94.64
2023-05-08T02:01:29.398Z,94.64
2023-05-08T02:03:35.610Z,95.21
2023-05-08T02:05:38.021Z,94.46
2023-05-08T02:07:41.210Z,94.51
2023-05-08T02:09:44.189Z,94.66
2023-05-08T02:11:47.169Z,95.14
2023-05-08T02:13:50.157Z,95.05
2023-05-08T02:15:54.505Z,95.36
2023-05-08T02:17:57.681Z,95.33
2023-05-08T02:20:03.519Z,95.40
2023-05-08T02:22:05.933Z,95.40
2023-05-08T02:24:09.226Z,95.38
2023-05-08T02:26:13.769Z,94.56
2023-05-08T02:28:18.064Z,94.20
2023-05-08T02:30:22.015Z,94.49
2023-05-08T02:32:26.704Z,95.08
2023-05-08T02:34:29.846Z,95.42
2023-05-08T02:36:32.884Z,94.60
2023-05-08T02:38:37.737Z,94.75
2023-05-08T02:40:45.573Z,95.00
2023-05-08T02:42:47.359Z,95.11
2023-05-08T02:44:48.883Z,95.23
2023-05-08T02:46:56.072Z,95.39
2023-05-08T02:49:07.298Z,95.19
2023-05-08T02:51:24.180Z,95.13
2023-05-08T02:53:34.408Z,95.15
2023-05-08T02:55:42.724Z,94.65
2023-05-08T02:57:53.608Z,95.04
2023-05-08T03:00:08.091Z,94.79
2023-05-08T03:02:28.812Z,95.38
2023-05-08T03:04:40.323Z,95.67
2023-05-08T03:06:46.899Z,95.78
2023-05-08T03:08:50.591Z,95.82
2023-05-08T03:10:56.012Z,95.78
2023-05-08T03:13:00.062Z,96.05
2023-05-08T03:15:08.079Z,94.97
2023-05-08T03:17:13.980Z,95.77
2023-05-08T03:19:23.359Z,95.69
2023-05-08T03:21:28.589Z,96.19
2023-05-08T03:23:33.174Z,96.41
2023-05-08T03:25:38.481Z,96.19
2023-05-08T03:27:41.156Z,96.18
2023-05-08T03:29:44.111Z,95.04
2023-05-08T03:31:47.441Z,95.90
2023-05-08T03:33:53.388Z,94.78
2023-05-08T03:35:56.603Z,95.18
2023-05-08T03:37:59.152Z,95.95
2023-05-08T03:40:01.036Z,96.31
2023-05-08T03:42:04.550Z,95.95
2023-05-08T03:44:07.662Z,95.89
2023-05-08T03:46:10.422Z,95.71
2023-05-08T03:48:13.298Z,96.39
2023-05-08T03:50:15.745Z,95.68
2023-05-08T03:52:17.398Z,95.58
2023-05-08T03:54:18.951Z,95.47
2023-05-08T03:56:20.995Z,96.27
2023-05-08T03:58:31.455Z,95.98
2023-05-08T04:01:07.283Z,95.70
2023-05-08T04:03:30.705Z,95.36
2023-05-08T04:05:37.855Z,96.36
2023-05-08T04:07:48.039Z,95.91
2023-05-08T04:10:07.167Z,96.08
2023-05-08T04:12:17.619Z,96.48
2023-05-08T04:14:21.290Z,96.17
2023-05-08T04:16:28.654Z,96.42
2023-05-08T04:18:30.985Z,96.35
2023-05-08T04:20:33.710Z,96.73
2023-05-08T04:22:38.606Z,96.08
2023-05-08T04:24:45.808Z,96.81
2023-05-08T04:26:48.107Z,96.44
2023-05-08T04:28:49.976Z,96.57
2023-05-08T04:30:52.412Z,95.87
2023-05-08T04:32:54.517Z,96.40
2023-05-08T04:34:56.534Z,96.32
2023-05-08T04:36:58.212Z,96.12
2023-05-08T04:38:59.813Z,97.20
2023-05-08T04:41:01.388Z,96.16
2023-05-08T04:43:03.016Z,95.93
2023-05-08T04:45:06.032Z,95.75
2023-05-08T04:47:07.536Z,95.79
2023-05-08T04:49:09.141Z,95.70
2023-05-08T04:51:10.797Z,96.40
2023-05-08T04:53:12.329Z,95.53
2023-05-08T04:55:14.114Z,96.20
2023-05-08T04:57:15.822Z,95.57
2023-05-08T04:59:17.321Z,94.88
2023-05-08T05:01:18.908Z,95.32
2023-05-08T05:03:20.550Z,95.69
2023-05-08T05:05:22.132Z,95.78
2023-05-08T05:07:23.638Z,95.25
2023-05-08T05:09:25.866Z,95.74
2023-05-08T05:11:27.500Z,95.78
2023-05-08T05:13:29.103Z,95.50
2023-05-08T05:15:30.977Z,95.12
2023-05-08T05:17:33.409Z,94.99
2023-05-08T05:19:35.083Z,95.21
2023-05-08T05:21:38.036Z,94.58
2023-05-08T05:23:39.586Z,94.37
2023-05-08T05:25:41.127Z,95.14
2023-05-08T05:27:42.623Z,94.30
2023-05-08T05:29:44.160Z,94.34
2023-05-08T05:31:45.689Z,94.03
2023-05-08T05:33:47.248Z,94.43
2023-05-08T05:35:48.882Z,94.84
2023-05-08T05:37:50.429Z,94.03
2023-05-08T05:39:51.931Z,93.04
2023-05-08T05:41:53.561Z,92.81
2023-05-08T05:43:55.224Z,92.50
2023-05-08T05:46:03.342Z,92.88
2023-05-08T05:48:05.299Z,92.68
2023-05-08T05:50:07.192Z,92.78
2023-05-08T05:52:08.733Z,92.22
2023-05-08T05:54:10.277Z,90.94
2023-05-08T05:56:11.812Z,91.20
2023-05-08T05:58:13.295Z,91.58
2023-05-08T06:00:16.495Z,91.56
2023-05-08T06:02:19.914Z,91.13
2023-05-08T06:04:21.682Z,90.96
2023-05-08T06:06:23.265Z,91.53
2023-05-08T06:08:24.841Z,91.87
2023-05-08T06:10:26.378Z,92.34
2023-05-08T06:12:28.501Z,92.08
2023-05-08T06:14:30.029Z,90.77
2023-05-08T06:16:32.192Z,90.70
2023-05-08T06:18:34.086Z,90.08
2023-05-08T06:20:38.044Z,90.52
2023-05-08T06:22:40.256Z,90.13
2023-05-08T06:24:41.782Z,89.98
2023-05-08T06:26:43.330Z,90.96
2023-05-08T06:28:44.825Z,89.36
2023-05-08T06:30:46.339Z,90.17
2023-05-08T06:32:47.967Z,91.17
2023-05-08T06:34:49.752Z,91.57
2023-05-08T06:36:51.328Z,90.11
2023-05-08T06:38:52.987Z,90.02
2023-05-08T06:40:55.266Z,90.73
2023-05-08T06:42:56.848Z,90.15
2023-05-08T06:44:58.407Z,90.55
2023-05-08T06:46:59.971Z,89.66
2023-05-08T06:49:01.509Z,90.20
2023-05-08T06:51:05.901Z,90.48
2023-05-08T06:53:08.177Z,88.18
2023-05-08T06:55:09.871Z,87.99
2023-05-08T06:57:13.772Z,88.06
2023-05-08T06:59:15.459Z,86.96
2023-05-08T07:01:17.094Z,88.04
2023-05-08T07:03:18.652Z,87.58
2023-05-08T07:05:20.456Z,87.82
2023-05-08T07:07:22.349Z,86.98
2023-05-08T07:09:23.933Z,86.14
2023-05-08T07:11:25.588Z,85.95
2023-05-08T07:13:27.320Z,86.34
2023-05-08T07:15:32.122Z,85.75
2023-05-08T07:17:36.934Z,85.33
2023-05-08T07:19:38.876Z,85.46
2023-05-08T07:21:40.509Z,86.43
2023-05-08T07:23:42.115Z,87.34
2023-05-08T07:25:43.812Z,85.34
2023-05-08T07:27:45.334Z,87.33
2023-05-08T07:29:46.960Z,86.35
2023-05-08T07:31:48.783Z,87.08
2023-05-08T07:33:50.392Z,87.23
2023-05-08T07:35:52.758Z,86.46
2023-05-08T07:37:54.441Z,87.49
2023-05-08T07:39:56.069Z,86.02
2023-05-08T07:41:57.739Z,85.84
2023-05-08T07:43:59.325Z,85.38
2023-05-08T07:46:00.953Z,85.44
2023-05-08T07:48:02.625Z,85.87
2023-05-08T07:50:05.053Z,86.00
2023-05-08T07:52:06.742Z,85.91
2023-05-08T07:54:08.323Z,86.55
2023-05-08T07:56:09.941Z,85.85
2023-05-08T07:58:11.528Z,85.68
2023-05-08T08:00:15.387Z,86.75
2023-05-08T08:02:17.000Z,86.49
2023-05-08T08:04:18.655Z,86.47
2023-05-08T08:06:20.290Z,85.07
2023-05-08T08:08:21.865Z,85.45
2023-05-08T08:10:23.438Z,84.53
2023-05-08T08:12:25.232Z,84.86
2023-05-08T08:14:27.523Z,85.06
2023-05-08T08:16:29.106Z,83.43
2023-05-08T08:18:34.744Z,83.53
2023-05-08T08:20:36.318Z,84.75
2023-05-08T08:22:38.000Z,84.35
2023-05-08T08:24:39.512Z,84.80
2023-05-08T08:26:41.065Z,83.37
2023-05-08T08:28:42.583Z,84.34
2023-05-08T08:30:44.187Z,83.93
2023-05-08T08:32:46.464Z,82.45
2023-05-08T08:34:48.237Z,82.77
2023-05-08T08:36:49.797Z,82.19
2023-05-08T08:38:51.309Z,82.63
2023-05-08T08:40:53.507Z,82.95
2023-05-08T08:42:55.617Z,81.74
2023-05-08T08:44:57.212Z,81.99
2023-05-08T08:47:00.230Z,81.47
2023-05-08T08:49:04.712Z,81.59
2023-05-08T08:51:09.455Z,81.65
2023-05-08T08:53:17.250Z,81.40
2023-05-08T08:55:20.773Z,82.40
2023-05-08T08:57:24.490Z,81.54
2023-05-08T08:59:28.201Z,79.89
2023-05-08T09:01:30.422Z,79.42
2023-05-08T09:03:32.657Z,79.78
2023-05-08T09:05:35.193Z,80.22
2023-05-08T09:07:38.710Z,80.23
2023-05-08T09:09:44.532Z,79.36
2023-05-08T09:11:46.813Z,77.86
2023-05-08T09:13:48.649Z,79.10
2023-05-08T09:15:50.786Z,78.70
2023-05-08T09:17:52.428Z,78.08
2023-05-08T09:19:54.255Z,77.22
2023-05-08T09:22:05.252Z,77.74
2023-05-08T09:24:06.920Z,77.18
2023-05-08T09:26:09.324Z,77.88
2023-05-08T09:28:24.720Z,77.85
2023-05-08T09:30:26.319Z,78.31
2023-05-08T09:32:32.090Z,78.37
2023-05-08T09:34:35.135Z,76.63
2023-05-08T09:36:38.730Z,75.43
2023-05-08T09:38:41.915Z,76.20
2023-05-08T09:40:43.563Z,78.43
2023-05-08T09:42:46.953Z,74.53
2023-05-08T09:44:54.180Z,74.02
2023-05-08T09:47:11.252Z,75.37
2023-05-08T09:49:18.298Z,75.49
2023-05-08T09:51:20.478Z,74.57
2023-05-08T09:53:31.162Z,74.65
2023-05-08T09:55:47.294Z,74.67
2023-05-08T09:57:59.614Z,76.01
2023-05-08T10:00:03.229Z,74.88
2023-05-08T10:02:10.992Z,75.81
2023-05-08T10:04:12.553Z,75.07
2023-05-08T10:06:15.010Z,75.07
2023-05-08T10:08:24.053Z,75.92
2023-05-08T10:10:27.997Z,75.08
2023-05-08T10:12:30.433Z,75.94
2023-05-08T10:14:32.010Z,75.52
2023-05-08T10:16:44.355Z,78.19
2023-05-08T10:18:50.029Z,77.11
2023-05-08T10:20:55.091Z,77.04
2023-05-08T10:22:57.441Z,76.81
2023-05-08T10:25:00.907Z,77.38
2023-05-08T10:27:14.100Z,77.31
2023-05-08T10:29:21.479Z,77.10
2023-05-08T10:31:26.907Z,75.60
2023-05-08T10:33:31.803Z,74.94
2023-05-08T10:35:33.486Z,75.75
2023-05-08T10:37:36.396Z,75.97
2023-05-08T10:39:39.236Z,74.70
2023-05-08T10:41:41.716Z,74.96
2023-05-08T10:43:43.722Z,75.27
2023-05-08T10:45:45.756Z,74.30
2023-05-08T10:48:21.803Z,74.57
2023-05-08T10:50:45.198Z,74.37
2023-05-08T10:53:03.693Z,73.91
2023-05-08T10:55:24.166Z,73.84
2023-05-08T10:57:25.720Z,74.73
2023-05-08T10:59:29.999Z,73.38
2023-05-08T11:01:31.642Z,73.31
2023-05-08T11:03:38.739Z,72.80
2023-05-08T11:05:47.585Z,74.24
2023-05-08T11:07:59.946Z,73.22
2023-05-08T11:10:07.931Z,73.11
2023-05-08T11:12:26.989Z,71.70
2023-05-08T11:14:28.917Z,72.19
2023-05-08T11:16:55.186Z,74.14
2023-05-08T11:19:19.048Z,72.61
2023-05-08T11:21:24.192Z,73.30
2023-05-08T11:23:33.189Z,74.76
2023-05-08T11:25:44.829Z,75.83
2023-05-08T11:27:49.105Z,72.57
2023-05-08T11:30:19.126Z,71.31
2023-05-08T11:32:21.093Z,71.09
2023-05-08T11:34:44.118Z,71.03
2023-05-08T11:37:01.342Z,70.80
2023-05-08T11:39:12.754Z,71.84
2023-05-08T11:41:22.231Z,71.92
2023-05-08T11:43:33.101Z,73.52
2023-05-08T11:45:37.870Z,73.17
2023-05-08T11:47:44.828Z,72.56
2023-05-08T11:49:46.627Z,73.48
2023-05-08T11:51:50.051Z,74.74
2023-05-08T11:53:51.651Z,72.77
2023-05-08T11:55:53.843Z,74.00
2023-05-08T11:57:55.779Z,74.26
2023-05-08T11:59:57.380Z,75.37
2023-05-08T12:02:07.925Z,74.67
2023-05-08T12:04:12.888Z,74.12
2023-05-08T12:06:14.739Z,74.16
2023-05-08T12:08:18.157Z,72.67
2023-05-08T12:10:20.145Z,72.05
2023-05-08T12:12:21.737Z,73.34
2023-05-08T12:14:23.948Z,73.75
2023-05-08T12:16:26.305Z,74.05
2023-05-08T12:18:30.523Z,73.36
2023-05-08T12:20:33.780Z,73.85
2023-05-08T12:22:35.520Z,72.61
2023-05-08T12:24:37.336Z,72.68
2023-05-08T12:26:39.060Z,71.18
2023-05-08T12:28:43.969Z,69.43
2023-05-08T12:30:45.914Z,73.05
2023-05-08T12:32:48.125Z,70.80
2023-05-08T12:34:49.914Z,69.54
2023-05-08T12:37:02.247Z,71.78
2023-05-08T12:39:14.089Z,71.98
2023-05-08T12:41:23.681Z,70.03
2023-05-08T12:43:33.076Z,71.18
2023-05-08T12:45:40.449Z,70.08
2023-05-08T12:47:45.884Z,70.16
2023-05-08T12:49:50.175Z,69.98
2023-05-08T12:51:52.833Z,71.48
2023-05-08T12:53:54.596Z,68.96
2023-05-08T12:55:58.477Z,69.85
2023-05-08T12:58:07.104Z,70.15
2023-05-08T13:00:09.143Z,70.72
2023-05-08T13:02:16.188Z,68.75
2023-05-08T13:04:18.017Z,69.34
2023-05-08T13:06:21.429Z,68.02
2023-05-08T13:08:39.539Z,69.44
2023-05-08T13:10:52.812Z,68.17
2023-05-08T13:12:54.439Z,69.07
2023-05-08T13:14:56.135Z,69.32
2023-05-08T13:16:57.799Z,69.34
2023-05-08T13:18:59.310Z,69.51
2023-05-08T13:21:02.233Z,68.95
2023-05-08T13:23:04.711Z,69.41
2023-05-08T13:25:06.750Z,70.53
2023-05-08T13:27:08.262Z,69.87
2023-05-08T13:29:09.785Z,69.44
2023-05-08T13:31:11.335Z,69.74
2023-05-08T13:33:12.986Z,69.33
2023-05-08T13:35:17.651Z,69.45
2023-05-08T13:37:19.532Z,69.96
2023-05-08T13:39:21.124Z,67.49
2023-05-08T13:41:22.880Z,68.98
2023-05-08T13:43:24.417Z,68.51
2023-05-08T13:45:26.179Z,67.93
2023-05-08T13:47:27.890Z,67.28
2023-05-08T13:49:29.485Z,68.23
2023-05-08T13:51:31.538Z,68.10
2023-05-08T13:53:33.075Z,68.58
2023-05-08T13:55:34.737Z,69.09
2023-05-08T13:57:36.367Z,69.32
2023-05-08T13:59:37.997Z,69.42
2023-05-08T14:01:39.583Z,70.16
2023-05-08T14:03:41.348Z,69.08
2023-05-08T14:05:42.957Z,69.05
2023-05-08T14:07:45.117Z,69.81
2023-05-08T14:09:47.022Z,70.00
2023-05-08T14:11:48.623Z,70.26
2023-05-08T14:13:50.568Z,70.55
2023-05-08T14:15:52.189Z,70.30
2023-05-08T14:17:53.910Z,70.92
2023-05-08T14:19:55.444Z,70.73
2023-05-08T14:21:57.048Z,70.43
2023-05-08T14:23:58.595Z,70.95
2023-05-08T14:26:00.460Z,70.48
2023-05-08T14:28:02.007Z,69.81
2023-05-08T14:30:03.889Z,71.22
2023-05-08T14:32:06.185Z,71.50
2023-05-08T14:34:07.767Z,70.06
2023-05-08T14:36:09.720Z,71.19
2023-05-08T14:38:11.967Z,70.55
2023-05-08T14:40:13.615Z,71.62
2023-05-08T14:42:22.711Z,70.68
2023-05-08T14:44:24.772Z,70.74
2023-05-08T14:46:26.466Z,70.81
2023-05-08T14:48:28.011Z,70.71
2023-05-08T14:50:29.549Z,70.44
2023-05-08T14:52:31.203Z,69.37
2023-05-08T14:54:33.090Z,70.25
2023-05-08T14:56:46.375Z,70.03
2023-05-08T14:58:48.857Z,70.20
2023-05-08T15:00:50.685Z,70.75
2023-05-08T15:02:56.021Z,69.85
2023-05-08T15:04:57.594Z,70.10
2023-05-08T15:06:59.125Z,70.57
2023-05-08T15:09:00.667Z,69.24
2023-05-08T15:11:02.469Z,68.91
2023-05-08T15:13:04.392Z,69.01
2023-05-08T15:15:06.655Z,69.43
2023-05-08T15:17:08.239Z,69.36
2023-05-08T15:19:09.878Z,68.94
2023-05-08T15:21:11.474Z,69.10
2023-05-08T15:23:13.006Z,70.60
2023-05-08T15:25:15.226Z,69.27
2023-05-08T15:27:16.959Z,70.08
2023-05-08T15:29:18.515Z,67.71
2023-05-08T15:31:20.071Z,68.27
2023-05-08T15:33:21.641Z,67.56
2023-05-08T15:35:23.246Z,66.60
2023-05-08T15:37:24.744Z,67.40
2023-05-08T15:39:29.255Z,67.01
2023-05-08T15:41:30.778Z,67.75
2023-05-08T15:43:32.452Z,67.86
2023-05-08T15:45:34.047Z,67.33
2023-05-08T15:47:35.640Z,67.29
2023-05-08T15:49:37.291Z,67.40
2023-05-08T15:51:38.790Z,67.89
2023-05-08T15:53:40.340Z,66.50
2023-05-08T15:55:42.292Z,67.85
2023-05-08T15:57:43.882Z,67.96
2023-05-08T15:59:45.475Z,67.54
2023-05-08T16:01:47.242Z,68.48
2023-05-08T16:03:49.168Z,67.90
2023-05-08T16:05:50.803Z,69.08
2023-05-08T16:07:53.856Z,67.79
2023-05-08T16:09:55.457Z,68.31
2023-05-08T16:11:56.972Z,68.07
2023-05-08T16:13:59.782Z,67.94
2023-05-08T16:16:07.852Z,68.51
2023-05-08T16:18:09.474Z,68.25
2023-05-08T16:20:11.651Z,68.16
2023-05-08T16:22:13.169Z,68.98
2023-05-08T16:24:14.786Z,67.61
2023-05-08T16:26:16.634Z,67.70
2023-05-08T16:28:18.226Z,67.69
2023-05-08T16:30:19.977Z,68.65
2023-05-08T16:32:21.581Z,68.44
2023-05-08T16:34:23.107Z,67.66
2023-05-08T16:36:24.740Z,66.37
2023-05-08T16:38:26.265Z,67.09
2023-05-08T16:40:27.838Z,68.67
2023-05-08T16:42:29.404Z,67.02
2023-05-08T16:44:31.013Z,67.49
2023-05-08T16:46:32.709Z,66.92
2023-05-08T16:48:34.472Z,67.34
2023-05-08T16:50:36.079Z,67.23
2023-05-08T16:52:38.215Z,67.01
2023-05-08T16:54:39.996Z,65.85
2023-05-08T16:56:41.602Z,66.16
2023-05-08T16:58:43.303Z,64.75
2023-05-08T17:00:44.835Z,63.03
2023-05-08T17:02:46.406Z,62.71
2023-05-08T17:04:48.906Z,55.67
2023-05-08T17:06:50.436Z,51.26
2023-05-08T17:08:51.948Z,51.14
2023-05-08T17:10:54.232Z,46.67
2023-05-08T17:12:56.279Z,45.50
2023-05-08T17:14:57.791Z,46.06
2023-05-08T17:16:59.716Z,49.85
2023-05-08T17:19:01.611Z,53.46
2023-05-08T17:21:03.235Z,56.33
2023-05-08T17:23:04.750Z,57.42
2023-05-08T17:25:07.052Z,59.53
2023-05-08T17:27:08.651Z,59.71
2023-05-08T17:29:10.249Z,61.04
2023-05-08T17:31:12.182Z,61.95
2023-05-08T17:33:13.768Z,62.71
2023-05-08T17:35:16.628Z,63.10
2023-05-08T17:37:18.205Z,63.98
2023-05-08T17:39:21.632Z,64.05
2023-05-08T17:41:23.181Z,65.24
2023-05-08T17:43:25.823Z,65.62
2023-05-08T17:45:27.500Z,66.54
2023-05-08T17:47:29.052Z,66.62
2023-05-08T17:49:30.667Z,67.28
2023-05-08T17:51:32.419Z,68.28
2023-05-08T17:53:33.953Z,68.33
2023-05-08T17:55:38.495Z,68.69
2023-05-08T17:57:39.990Z,69.81
2023-05-08T17:59:41.568Z,69.55
2023-05-08T18:01:43.108Z,69.97
2023-05-08T18:03:50.827Z,70.47
2023-05-08T18:05:52.436Z,70.99
2023-05-08T18:07:53.987Z,70.44
2023-05-08T18:09:55.612Z,71.06
2023-05-08T18:12:02.368Z,72.48
2023-05-08T18:14:03.974Z,71.96
2023-05-08T18:16:05.582Z,73.33
2023-05-08T18:18:07.340Z,72.74
2023-05-08T18:20:09.347Z,72.77
2023-05-08T18:22:10.876Z,73.75
2023-05-08T18:24:12.487Z,73.81
2023-05-08T18:26:15.441Z,74.61
2023-05-08T18:28:16.956Z,74.75
2023-05-08T18:30:18.528Z,75.77
2023-05-08T18:32:20.530Z,75.78
2023-05-08T18:34:22.102Z,75.92
2023-05-08T18:36:23.727Z,76.03
2023-05-08T18:38:25.437Z,76.75
2023-05-08T18:40:27.010Z,76.71
2023-05-08T18:42:28.524Z,77.40
2023-05-08T18:44:30.081Z,78.20
2023-05-08T18:46:31.901Z,77.91
2023-05-08T18:48:33.536Z,78.44
2023-05-08T18:50:35.190Z,78.33
2023-05-08T18:52:36.749Z,78.16
2023-05-08T18:54:40.520Z,78.64
2023-05-08T18:56:42.254Z,78.66
2023-05-08T18:58:43.824Z,79.56
2023-05-08T19:00:45.395Z,80.22
2023-05-08T19:02:47.666Z,81.12
2023-05-08T19:04:49.256Z,80.88
2023-05-08T19:06:50.808Z,81.15
2023-05-08T19:08:52.453Z,80.32
2023-05-08T19:10:54.134Z,80.94
2023-05-08T19:12:55.937Z,81.33
2023-05-08T19:14:57.485Z,81.68
2023-05-08T19:16:59.035Z,82.11
2023-05-08T19:19:00.751Z,82.33
2023-05-08T19:21:02.401Z,82.43
2023-05-08T19:23:03.968Z,82.42
2023-05-08T19:25:05.939Z,81.42
2023-05-08T19:27:07.431Z,82.46
2023-05-08T19:29:09.039Z,82.83
2023-05-08T19:31:10.676Z,82.90
2023-05-08T19:33:12.327Z,83.75
2023-05-08T19:35:13.920Z,83.30
2023-05-08T19:37:15.506Z,83.34
2023-05-08T19:39:17.866Z,83.03
2023-05-08T19:41:19.482Z,83.13
2023-05-08T19:43:21.057Z,84.02
2023-05-08T19:45:22.609Z,83.97
2023-05-08T19:47:24.181Z,84.41
2023-05-08T19:49:25.786Z,84.34
2023-05-08T19:51:27.317Z,84.43
2023-05-08T19:53:28.828Z,84.19
2023-05-08T19:55:30.417Z,83.93
2023-05-08T19:57:31.918Z,84.59
2023-05-08T19:59:33.475Z,84.18
2023-05-08T20:01:34.990Z,84.65
2023-05-08T20:03:36.623Z,84.91
2023-05-08T20:05:38.185Z,85.05
2023-05-08T20:07:39.679Z,84.85
2023-05-08T20:09:41.294Z,84.76
2023-05-08T20:11:42.835Z,85.17
2023-05-08T20:13:45.116Z,85.72
2023-05-08T20:15:46.841Z,84.64
2023-05-08T20:17:48.567Z,85.41
2023-05-08T20:19:50.150Z,85.62
2023-05-08T20:21:51.670Z,85.39
2023-05-08T20:23:53.192Z,85.42
2023-05-08T20:25:54.803Z,85.26
2023-05-08T20:27:56.399Z,85.02
2023-05-08T20:29:58.186Z,85.81
2023-05-08T20:31:59.811Z,85.98
2023-05-08T20:34:01.381Z,85.76
2023-05-08T20:36:03.429Z,85.79
2023-05-08T20:38:05.185Z,85.88
2023-05-08T20:40:07.478Z,85.93
2023-05-08T20:42:09.034Z,86.00
2023-05-08T20:44:12.385Z,86.54
2023-05-08T20:46:14.015Z,86.03
2023-05-08T20:48:15.577Z,85.77
2023-05-08T20:50:17.188Z,86.25
2023-05-08T20:52:18.788Z,86.70
2023-05-08T20:54:20.397Z,86.13
2023-05-08T20:56:21.928Z,85.69
2023-05-08T20:58:23.447Z,85.96
2023-05-08T21:00:25.294Z,85.73
2023-05-08T21:02:26.991Z,86.15
2023-05-08T21:04:28.631Z,86.68
2023-05-08T21:06:30.679Z,86.13
2023-05-08T21:08:32.175Z,86.26
2023-05-08T21:10:34.061Z,86.46
2023-05-08T21:12:35.617Z,86.36
2023-05-08T21:14:40.059Z,86.51
2023-05-08T21:16:41.750Z,86.33
2023-05-08T21:18:43.323Z,86.05
2023-05-08T21:20:49.792Z,86.25
2023-05-08T21:22:51.437Z,85.98
2023-05-08T21:24:53.005Z,86.16
2023-05-08T21:26:54.597Z,86.32
2023-05-08T21:28:58.601Z,86.52
2023-05-08T21:31:00.537Z,86.25
2023-05-08T21:33:03.059Z,86.92
2023-05-08T21:35:04.880Z,86.49
2023-05-08T21:37:06.462Z,86.81
2023-05-08T21:39:08.356Z,86.26
2023-05-08T21:41:09.926Z,86.60
2023-05-08T21:43:11.466Z,87.10
2023-05-08T21:45:13.166Z,86.63
2023-05-08T21:47:14.840Z,86.93
2023-05-08T21:49:16.386Z,86.68
2023-05-08T21:51:17.911Z,86.53
2023-05-08T21:53:19.465Z,87.30
2023-05-08T21:55:21.356Z,86.77
2023-05-08T21:57:22.909Z,86.91
2023-05-08T21:59:24.426Z,87.01
2023-05-08T22:01:26.171Z,86.92
2023-05-08T22:03:28.092Z,85.99
2023-05-08T22:05:29.788Z,86.43
2023-05-08T22:07:31.321Z,86.99
2023-05-08T22:09:32.909Z,87.16
2023-05-08T22:11:34.416Z,86.96
2023-05-08T22:13:36.020Z,86.90
2023-05-08T22:15:37.552Z,87.04
2023-05-08T22:17:40.619Z,86.72
2023-05-08T22:19:42.198Z,87.25
2023-05-08T22:21:43.727Z,87.28
2023-05-08T22:23:45.370Z,86.89
2023-05-08T22:25:47.000Z,87.21
2023-05-08T22:27:48.578Z,87.17
2023-05-08T22:29:50.152Z,86.89
2023-05-08T22:31:51.812Z,87.42
2023-05-08T22:33:53.345Z,87.01
2023-05-08T22:35:54.856Z,87.79
2023-05-08T22:37:59.519Z,87.58
2023-05-08T22:40:01.056Z,86.66
2023-05-08T22:42:02.744Z,87.48
2023-05-08T22:44:04.491Z,88.37
2023-05-08T22:46:06.508Z,87.78
2023-05-08T22:48:10.844Z,87.38
2023-05-08T22:50:12.484Z,87.75
2023-05-08T22:52:14.029Z,87.37
2023-05-08T22:54:15.603Z,87.85
2023-05-08T22:56:17.172Z,87.86
2023-05-08T22:58:18.726Z,87.94
2023-05-08T23:00:20.635Z,88.19
2023-05-08T23:02:22.196Z,87.31
2023-05-08T23:04:23.782Z,87.50
2023-05-08T23:06:25.334Z,87.97
2023-05-08T23:08:26.956Z,88.53
2023-05-08T23:10:28.506Z,88.26
2023-05-08T23:12:30.105Z,87.70
2023-05-08T23:14:31.628Z,88.37
2023-05-08T23:16:33.232Z,88.47
2023-05-08T23:18:34.775Z,88.80
2023-05-08T23:20:36.362Z,88.65
2023-05-08T23:22:40.578Z,88.74
2023-05-08T23:24:45.226Z,88.59
2023-05-08T23:26:48.502Z,89.00
2023-05-08T23:28:50.052Z,88.11
2023-05-08T23:30:51.576Z,88.18
2023-05-08T23:32:53.156Z,88.81
2023-05-08T23:34:54.775Z,88.23
2023-05-08T23:36:56.335Z,89.17
2023-05-08T23:38:57.915Z,88.03
2023-05-08T23:40:59.470Z,88.38
2023-05-08T23:43:00.987Z,88.11
2023-05-08T23:45:02.892Z,87.88
2023-05-08T23:47:04.486Z,88.06
2023-05-08T23:49:06.769Z,88.29
2023-05-08T23:51:08.335Z,87.94
2023-05-08T23:53:09.898Z,87.70
2023-05-08T23:55:11.722Z,88.02
2023-05-08T23:57:13.381Z,88.24
2023-05-08T23:59:14.912Z,88.22
